EGHE/ISC METAR and TAF weather

Enter ICAO airport designator
Station Type Date Time Source
EGHE METAR 2020/04/06 08:50 UTC NOAA

EGHE 060850Z 24012KT CAVOK 11/09 Q1016


Station Type Date Time Source
EGHE Decoded METAR 2020/04/06 08:50 UTC NOAA

Scilly, Saint Mary'S, United Kingdom (EGHE) 49-55N 006-18W 0M
Apr 06, 2020 - 04:50 AM EDT / 2020.04.06 0850 UTC
Wind: from the WSW (240 degrees) at 14 MPH (12 KT):0
Visibility: greater than 7 mile(s):0
Temperature: 51 F (11 C)
Dew Point: 48 F (9 C)
Relative Humidity: 87%
Pressure (altimeter): 30.00 in. Hg (1016 hPa)
ob: EGHE 060850Z 24012KT CAVOK 11/09 Q1016
cycle: 9

Station Type Date Time Source
EGHE TAF UTC NOAA

Error!

Example: see airport list